Time;durP1;ratioP1;P1;durP2;ratioP2;P2;SDS_P1;SDS_P2;PMS_P1;PMS_P2;Temp;Humidity;BMP_temperature;BMP_pressure;BME280_temperature;BME280_humidity;BME280_pressure;Samples;Min_cycle;Max_cycle;Signal;HPM_P1;HPM_P2
2024/01/16 00:01:37;;;;;;;16.10;5.25;;;-1.40;99.90;;;;;;5028664;28;20033;-66
2024/01/16 00:04:03;;;;;;;15.00;4.88;;;-1.30;99.90;;;;;;5027153;28;20068;-63
2024/01/16 00:06:29;;;;;;;13.45;5.10;;;-1.40;99.90;;;;;;5029332;28;20063;-65
2024/01/16 00:08:54;;;;;;;12.00;4.50;;;-1.50;99.90;;;;;;5028820;28;20029;-67
2024/01/16 00:11:20;;;;;;;16.38;5.90;;;-1.50;99.90;;;;;;5028388;28;20036;-64
2024/01/16 00:13:46;;;;;;;13.55;5.22;;;-1.50;99.90;;;;;;5029580;28;20041;-66
2024/01/16 00:16:12;;;;;;;13.48;4.65;;;-1.50;99.90;;;;;;5028061;28;20112;-65
2024/01/16 00:18:37;;;;;;;14.88;5.20;;;-1.50;99.90;;;;;;5029305;28;20047;-68
2024/01/16 00:21:03;;;;;;;12.48;4.63;;;-1.50;99.90;;;;;;5028058;28;20061;-63
2024/01/16 00:23:31;;;;;;;14.63;5.40;;;-1.50;99.90;;;;;;5028981;28;20795;-64
2024/01/16 00:25:57;;;;;;;12.00;4.43;;;-1.50;99.90;;;;;;5028357;28;20168;-69
2024/01/16 00:28:23;;;;;;;12.07;4.32;;;-1.50;99.90;;;;;;5028005;28;20112;-64
2024/01/16 00:30:49;;;;;;;15.00;4.82;;;-1.50;99.90;;;;;;5028953;28;20816;-65
2024/01/16 00:33:14;;;;;;;14.93;4.68;;;-1.50;99.90;;;;;;5026769;28;20033;-66
2024/01/16 00:35:40;;;;;;;12.73;5.25;;;-1.50;99.90;;;;;;5028754;28;20505;-64
2024/01/16 00:38:05;;;;;;;13.57;6.10;;;-1.50;99.90;;;;;;5026270;28;20576;-65
2024/01/16 00:40:31;;;;;;;15.50;4.97;;;-1.50;99.90;;;;;;5028607;28;20079;-65
2024/01/16 00:42:57;;;;;;;14.82;5.07;;;-1.50;99.90;;;;;;5029117;28;20410;-66
2024/01/16 00:45:23;;;;;;;22.15;5.40;;;-1.50;99.90;;;;;;5027268;28;20046;-64
2024/01/16 00:47:48;;;;;;;13.48;5.50;;;-1.50;99.90;;;;;;5027991;28;20052;-64
2024/01/16 00:50:14;;;;;;;16.05;5.07;;;-1.50;99.90;;;;;;5027682;28;20607;-64
2024/01/16 00:52:39;;;;;;;16.67;5.93;;;-1.50;99.90;;;;;;5028793;28;20466;-66
2024/01/16 00:55:05;;;;;;;14.05;5.38;;;-1.60;99.90;;;;;;5027527;28;20390;-64
2024/01/16 00:57:31;;;;;;;17.20;5.57;;;-1.70;99.90;;;;;;5028722;28;20079;-65
2024/01/16 00:59:56;;;;;;;15.05;4.95;;;-1.80;99.90;;;;;;5027689;28;20492;-64
2024/01/16 01:02:22;;;;;;;15.27;5.22;;;-1.90;99.90;;;;;;5027456;28;20022;-64
2024/01/16 01:04:48;;;;;;;13.70;4.82;;;-1.90;99.90;;;;;;5028217;28;20036;-64
2024/01/16 01:07:14;;;;;;;13.38;4.75;;;-1.90;99.90;;;;;;5026463;28;20068;-64
2024/01/16 01:09:40;;;;;;;13.82;5.18;;;-1.90;99.90;;;;;;5026412;28;20048;-65
2024/01/16 01:12:06;;;;;;;16.13;5.25;;;-1.90;99.90;;;;;;5027692;28;20478;-64
2024/01/16 01:14:31;;;;;;;17.45;5.40;;;-1.90;99.90;;;;;;5027748;28;20036;-64
2024/01/16 01:16:57;;;;;;;16.52;5.75;;;-1.90;99.90;;;;;;5028370;28;20429;-65
2024/01/16 01:19:23;;;;;;;14.80;5.57;;;-2.00;99.90;;;;;;5027531;28;20033;-64
2024/01/16 01:21:49;;;;;;;16.83;5.55;;;-2.00;99.90;;;;;;5027446;28;20033;-66
2024/01/16 01:24:15;;;;;;;13.55;4.90;;;-2.00;99.90;;;;;;5027242;28;20041;-64
2024/01/16 01:26:44;;;;;;;15.30;5.47;;;-2.00;99.90;;;;;;5026274;28;20363;-66
2024/01/16 01:29:09;;;;;;;15.95;5.25;;;-1.90;99.90;;;;;;5027437;28;20037;-64
2024/01/16 01:31:35;;;;;;;12.85;4.18;;;-1.90;99.90;;;;;;5027948;28;20034;-63
2024/01/16 01:34:01;;;;;;;15.70;5.40;;;-1.90;99.90;;;;;;5028316;28;20048;-68
2024/01/16 01:36:27;;;;;;;11.93;5.25;;;-1.90;99.90;;;;;;5027243;28;20042;-64
2024/01/16 01:38:53;;;;;;;13.63;5.22;;;-1.90;99.90;;;;;;5028022;28;20095;-63
2024/01/16 01:41:18;;;;;;;18.63;5.68;;;-2.00;99.90;;;;;;5026501;28;20042;-64
2024/01/16 01:43:44;;;;;;;17.25;5.13;;;-2.00;99.90;;;;;;5028142;28;20477;-65
2024/01/16 01:46:12;;;;;;;14.23;5.28;;;-2.00;99.90;;;;;;5023366;28;20068;-65
2024/01/16 01:48:39;;;;;;;14.07;5.50;;;-1.90;99.90;;;;;;5027514;28;20054;-65
2024/01/16 01:51:05;;;;;;;12.48;5.10;;;-1.90;99.90;;;;;;5027555;28;20486;-69
2024/01/16 01:53:33;;;;;;;11.45;4.75;;;-1.90;99.90;;;;;;5027902;28;20025;-63
2024/01/16 01:56:01;;;;;;;11.05;3.72;;;-2.00;99.90;;;;;;5027127;28;20041;-64
2024/01/16 01:58:28;;;;;;;11.93;4.95;;;-1.90;99.90;;;;;;5026754;28;20037;-64
2024/01/16 02:00:53;;;;;;;15.90;4.22;;;-1.90;99.90;;;;;;5026741;28;20095;-63
2024/01/16 02:03:21;;;;;;;18.00;5.22;;;-1.90;99.90;;;;;;5030493;28;20034;-64
2024/01/16 02:05:48;;;;;;;13.98;5.10;;;-2.00;99.90;;;;;;5027711;28;20044;-65
2024/01/16 02:08:14;;;;;;;12.68;4.38;;;-1.90;99.90;;;;;;5026726;28;20025;-64
2024/01/16 02:10:45;;;;;;;13.27;4.68;;;-1.90;99.90;;;;;;5030641;28;20469;-65
2024/01/16 02:13:11;;;;;;;14.68;4.63;;;-1.90;99.90;;;;;;5026785;28;20021;-63
2024/01/16 02:15:39;;;;;;;15.93;5.28;;;-1.90;99.90;;;;;;5025525;28;20048;-64
2024/01/16 02:18:05;;;;;;;14.07;5.05;;;-1.80;99.90;;;;;;5027033;28;20049;-70
2024/01/16 02:20:31;;;;;;;15.45;4.10;;;-1.90;99.90;;;;;;5026530;28;20037;-65
2024/01/16 02:23:03;;;;;;;11.77;4.57;;;-1.80;99.90;;;;;;5029325;28;20087;-71
2024/01/16 02:25:29;;;;;;;14.80;4.70;;;-1.80;99.90;;;;;;5025297;28;20049;-64
2024/01/16 02:27:54;;;;;;;12.85;4.80;;;-1.90;99.90;;;;;;5026674;28;20056;-66
2024/01/16 02:30:20;;;;;;;12.18;4.97;;;-1.90;99.90;;;;;;5026683;28;20498;-63
2024/01/16 02:32:46;;;;;;;13.85;4.95;;;-1.90;99.90;;;;;;5029570;28;20043;-64
2024/01/16 02:35:11;;;;;;;14.27;4.75;;;-1.90;99.90;;;;;;5027581;28;20041;-64
2024/01/16 02:37:37;;;;;;;13.20;4.78;;;-1.90;99.90;;;;;;5030835;28;20391;-66
2024/01/16 02:40:06;;;;;;;12.27;4.70;;;-1.90;99.90;;;;;;5031138;28;20104;-64
2024/01/16 02:42:32;;;;;;;13.63;5.05;;;-1.90;99.90;;;;;;5030676;28;20044;-65
2024/01/16 02:44:58;;;;;;;14.88;4.80;;;-1.90;99.90;;;;;;5030437;28;20470;-65
2024/01/16 02:47:23;;;;;;;13.60;5.00;;;-1.90;99.90;;;;;;5029232;28;20111;-66
2024/01/16 02:49:49;;;;;;;15.43;5.03;;;-1.90;99.90;;;;;;5031127;28;20060;-66
2024/01/16 02:52:15;;;;;;;14.88;5.00;;;-1.90;99.90;;;;;;5028792;28;20083;-66
2024/01/16 02:54:40;;;;;;;12.43;4.57;;;-1.80;99.90;;;;;;5030550;28;20038;-65
2024/01/16 02:57:06;;;;;;;14.82;5.35;;;-1.80;99.90;;;;;;5030559;28;20042;-70
2024/01/16 02:59:31;;;;;;;12.85;5.00;;;-1.80;99.90;;;;;;5029261;28;20040;-64
2024/01/16 03:01:57;;;;;;;15.43;5.03;;;-1.90;99.90;;;;;;5030652;28;20385;-64
2024/01/16 03:04:23;;;;;;;15.45;5.07;;;-1.90;99.90;;;;;;5029873;28;20079;-63
2024/01/16 03:06:49;;;;;;;15.02;5.22;;;-1.90;99.90;;;;;;5030251;28;20098;-64
2024/01/16 03:09:14;;;;;;;13.40;4.93;;;-2.00;99.90;;;;;;5030002;28;20085;-65
2024/01/16 03:11:40;;;;;;;14.30;5.30;;;-1.90;99.90;;;;;;5030472;28;20036;-64
2024/01/16 03:14:06;;;;;;;17.65;4.80;;;-1.90;99.90;;;;;;5030015;28;20488;-64
2024/01/16 03:16:32;;;;;;;16.13;4.47;;;-1.90;99.90;;;;;;5028998;28;20052;-63
2024/01/16 03:18:57;;;;;;;14.05;4.95;;;-2.00;99.90;;;;;;5030476;28;20087;-64
2024/01/16 03:21:23;;;;;;;14.30;5.13;;;-2.00;99.90;;;;;;5031820;28;20025;-63
2024/01/16 03:23:49;;;;;;;17.20;5.13;;;-2.10;99.90;;;;;;5028548;28;20413;-63
2024/01/16 03:26:16;;;;;;;17.02;5.50;;;-2.10;99.90;;;;;;5035702;28;20049;-64
2024/01/16 03:28:41;;;;;;;12.90;5.22;;;-2.20;99.90;;;;;;5037820;28;20040;-64
2024/01/16 03:31:07;;;;;;;14.57;5.20;;;-2.20;99.90;;;;;;5033413;28;20116;-63
2024/01/16 03:33:34;;;;;;;14.48;5.10;;;-2.20;99.90;;;;;;5026119;28;20095;-63
2024/01/16 03:36:00;;;;;;;14.60;4.95;;;-2.20;99.90;;;;;;5035092;28;20038;-65
2024/01/16 03:38:26;;;;;;;17.20;4.75;;;-2.20;99.90;;;;;;5040616;28;20043;-63
2024/01/16 03:40:51;;;;;;;15.55;5.20;;;-2.20;99.90;;;;;;5025478;28;20038;-64
2024/01/16 03:43:18;;;;;;;14.93;5.07;;;-2.20;99.90;;;;;;5014766;28;20474;-64
2024/01/16 03:45:44;;;;;;;14.45;5.57;;;-2.20;99.90;;;;;;5025401;28;20561;-64
2024/01/16 03:48:10;;;;;;;14.43;4.93;;;-2.30;99.90;;;;;;5028323;28;20049;-68
2024/01/16 03:50:36;;;;;;;20.33;5.10;;;-2.30;99.90;;;;;;5029130;28;20386;-63
2024/01/16 03:53:03;;;;;;;13.75;5.15;;;-2.30;99.90;;;;;;5033480;28;20025;-63
2024/01/16 03:55:30;;;;;;;16.80;5.22;;;-2.30;99.90;;;;;;5029260;28;20383;-64
2024/01/16 03:57:56;;;;;;;13.60;4.70;;;-2.30;99.90;;;;;;5029709;28;20752;-63
2024/01/16 04:00:23;;;;;;;16.05;4.82;;;-2.30;99.90;;;;;;5028931;28;20372;-62
2024/01/16 04:02:49;;;;;;;16.58;5.40;;;-2.40;99.90;;;;;;5028871;28;20033;-65
2024/01/16 04:05:15;;;;;;;13.45;4.75;;;-2.30;99.90;;;;;;5028919;28;20033;-66
2024/01/16 04:07:40;;;;;;;12.23;5.00;;;-2.40;99.90;;;;;;5029098;28;20330;-63
2024/01/16 04:10:07;;;;;;;13.57;5.00;;;-2.40;99.90;;;;;;5028092;28;20083;-63
2024/01/16 04:12:32;;;;;;;14.50;4.60;;;-2.40;99.90;;;;;;5027555;28;20025;-62
2024/01/16 04:14:58;;;;;;;14.38;5.50;;;-2.40;99.90;;;;;;5029100;28;20045;-64
2024/01/16 04:17:24;;;;;;;14.75;4.75;;;-2.50;99.90;;;;;;5028489;28;20085;-64
2024/01/16 04:19:49;;;;;;;12.43;4.43;;;-2.50;99.90;;;;;;5029575;28;20442;-65
2024/01/16 04:22:15;;;;;;;14.45;4.53;;;-2.60;99.90;;;;;;5027119;28;20124;-70
2024/01/16 04:24:40;;;;;;;16.02;5.03;;;-2.60;99.90;;;;;;5009447;28;20030;-63
2024/01/16 04:27:06;;;;;;;12.75;4.97;;;-2.70;99.90;;;;;;5009352;28;20394;-65
2024/01/16 04:29:31;;;;;;;13.70;5.13;;;-2.70;99.90;;;;;;5017508;28;20033;-64
2024/01/16 04:31:57;;;;;;;12.90;4.45;;;-2.60;99.90;;;;;;5028865;28;20021;-64
2024/01/16 04:34:23;;;;;;;16.02;5.20;;;-2.70;99.90;;;;;;5028147;28;20063;-63
2024/01/16 04:36:48;;;;;;;12.82;4.90;;;-2.70;99.90;;;;;;5027304;28;20041;-63
2024/01/16 04:39:14;;;;;;;12.02;5.25;;;-2.70;99.90;;;;;;5027256;28;20037;-68
2024/01/16 04:41:40;;;;;;;15.07;5.80;;;-2.70;99.90;;;;;;5028049;28;20056;-64
2024/01/16 04:44:06;;;;;;;18.20;5.20;;;-2.60;99.90;;;;;;5028518;28;20030;-64
2024/01/16 04:46:31;;;;;;;12.13;5.22;;;-2.50;99.90;;;;;;5026629;28;20429;-63
2024/01/16 04:48:57;;;;;;;14.93;5.55;;;-2.50;99.90;;;;;;5027789;28;20049;-64
2024/01/16 04:51:22;;;;;;;12.68;5.07;;;-2.60;99.90;;;;;;5027717;28;20041;-62
2024/01/16 04:53:48;;;;;;;14.52;5.28;;;-2.60;99.90;;;;;;5028193;28;20037;-63
2024/01/16 04:56:14;;;;;;;16.15;5.80;;;-2.60;99.90;;;;;;5025849;28;20041;-69
2024/01/16 04:58:39;;;;;;;15.85;5.78;;;-2.60;99.90;;;;;;5028683;28;20039;-64
2024/01/16 05:01:05;;;;;;;13.27;4.78;;;-2.70;99.90;;;;;;5028440;28;20038;-63
2024/01/16 05:03:30;;;;;;;16.70;5.10;;;-2.70;99.90;;;;;;5027872;28;20061;-63
2024/01/16 05:05:56;;;;;;;13.95;5.35;;;-2.70;99.90;;;;;;5027627;28;20520;-64
2024/01/16 05:08:22;;;;;;;13.73;5.28;;;-2.70;99.90;;;;;;5027054;28;20034;-63
2024/01/16 05:10:48;;;;;;;11.93;4.50;;;-2.70;99.90;;;;;;5028469;28;20083;-63
2024/01/16 05:13:14;;;;;;;18.25;5.50;;;-2.80;99.90;;;;;;5027206;28;20044;-68
2024/01/16 05:15:40;;;;;;;16.40;5.15;;;-2.80;99.90;;;;;;5027359;28;20045;-64
2024/01/16 05:18:06;;;;;;;16.30;5.40;;;-2.80;99.90;;;;;;5026542;28;20061;-65
2024/01/16 05:20:32;;;;;;;16.45;5.55;;;-2.80;99.90;;;;;;5027856;28;20430;-63
2024/01/16 05:22:58;;;;;;;19.20;5.25;;;-2.80;99.90;;;;;;5028403;28;20482;-66
2024/01/16 05:25:23;;;;;;;15.65;5.57;;;-2.90;99.90;;;;;;5027716;28;20034;-64
2024/01/16 05:27:52;;;;;;;18.10;5.45;;;-2.80;99.90;;;;;;5028008;28;20413;-64
2024/01/16 05:30:17;;;;;;;11.45;4.80;;;-2.90;99.90;;;;;;5027857;28;20064;-69
2024/01/16 05:32:43;;;;;;;13.45;4.57;;;-2.90;99.90;;;;;;5028347;28;20461;-63
2024/01/16 05:35:11;;;;;;;15.50;5.10;;;-3.00;99.90;;;;;;5028364;28;20044;-64
2024/01/16 05:37:37;;;;;;;19.42;5.38;;;-3.00;99.90;;;;;;5015802;28;20054;-64
2024/01/16 05:40:03;;;;;;;16.88;5.68;;;-3.10;99.90;;;;;;5015784;28;20128;-62
2024/01/16 05:42:29;;;;;;;14.63;4.80;;;-3.10;99.90;;;;;;5027254;28;20740;-64
2024/01/16 05:44:55;;;;;;;13.18;4.93;;;-3.10;99.90;;;;;;5026547;28;20156;-64
2024/01/16 05:47:24;;;;;;;12.38;4.57;;;-3.10;99.90;;;;;;5026791;28;20572;-65
2024/01/16 05:49:49;;;;;;;12.93;4.78;;;-3.10;99.90;;;;;;5027406;28;20091;-63
2024/01/16 05:52:15;;;;;;;13.07;4.80;;;-3.00;99.90;;;;;;5026308;28;20025;-64
2024/01/16 05:54:40;;;;;;;15.80;5.18;;;-3.10;99.90;;;;;;5027196;28;20718;-63
2024/01/16 05:57:06;;;;;;;18.33;5.50;;;-3.10;99.90;;;;;;5027958;28;20033;-65
2024/01/16 05:59:32;;;;;;;18.15;4.90;;;-3.10;99.90;;;;;;5027483;28;20049;-64
2024/01/16 06:01:57;;;;;;;16.65;4.93;;;-3.10;99.90;;;;;;5027863;28;20034;-65
2024/01/16 06:04:23;;;;;;;14.10;5.03;;;-3.10;99.90;;;;;;5026977;28;20037;-63
2024/01/16 06:06:49;;;;;;;12.05;4.90;;;-3.10;99.90;;;;;;5028997;28;20561;-64
2024/01/16 06:09:15;;;;;;;16.27;4.78;;;-3.20;99.90;;;;;;5029543;28;20042;-64
2024/01/16 06:11:40;;;;;;;12.55;5.00;;;-3.10;99.90;;;;;;5031184;28;20017;-63
2024/01/16 06:14:09;;;;;;;14.05;4.90;;;-3.10;99.90;;;;;;5030305;28;20030;-65
2024/01/16 06:16:35;;;;;;;13.50;5.28;;;-3.10;99.90;;;;;;5029887;28;20049;-64
2024/01/16 06:19:01;;;;;;;15.20;5.70;;;-3.10;99.90;;;;;;5031248;28;20025;-62
2024/01/16 06:21:27;;;;;;;14.88;5.18;;;-3.10;99.90;;;;;;5029770;28;20029;-63
2024/01/16 06:23:52;;;;;;;14.70;5.57;;;-3.10;99.90;;;;;;5031786;28;20124;-63
2024/01/16 06:26:18;;;;;;;13.60;4.82;;;-3.10;99.90;;;;;;5031172;28;20041;-67
2024/01/16 06:28:44;;;;;;;16.42;5.70;;;-3.10;99.90;;;;;;5024714;28;20033;-65
2024/01/16 06:31:10;;;;;;;16.85;5.55;;;-3.10;99.90;;;;;;5025900;28;20030;-67
2024/01/16 06:33:35;;;;;;;19.23;6.38;;;-3.10;99.90;;;;;;5027488;28;20476;-66
2024/01/16 06:36:04;;;;;;;23.05;5.97;;;-3.10;99.90;;;;;;5026032;28;20038;-66
2024/01/16 06:38:30;;;;;;;15.85;5.53;;;-3.10;99.90;;;;;;5027415;28;20572;-66
2024/01/16 06:40:56;;;;;;;13.77;5.25;;;-3.20;99.90;;;;;;5022407;28;20752;-66
2024/01/16 06:43:22;;;;;;;20.13;6.18;;;-3.10;99.90;;;;;;5027958;28;20052;-70
2024/01/16 06:45:48;;;;;;;14.25;5.65;;;-3.10;99.90;;;;;;5024390;28;20029;-67
2024/01/16 06:48:13;;;;;;;17.95;5.38;;;-3.10;99.90;;;;;;5018654;28;20430;-64
2024/01/16 06:50:39;;;;;;;17.75;5.40;;;-3.10;99.90;;;;;;5026266;28;20080;-65
2024/01/16 06:53:04;;;;;;;16.27;5.28;;;-3.10;99.90;;;;;;5029200;28;20474;-67
2024/01/16 06:55:30;;;;;;;13.32;4.60;;;-3.10;99.90;;;;;;5026404;28;20065;-65
2024/01/16 06:57:56;;;;;;;11.90;5.05;;;-3.10;99.90;;;;;;5028688;28;20394;-64
2024/01/16 07:00:25;;;;;;;14.98;5.03;;;-3.10;99.90;;;;;;5026820;28;20470;-68
2024/01/16 07:02:51;;;;;;;9.95;3.40;;;-3.10;99.90;;;;;;5027711;28;20733;-63
2024/01/16 07:05:17;;;;;;;11.07;4.55;;;-3.00;99.90;;;;;;5027251;28;20025;-65
2024/01/16 07:07:43;;;;;;;12.85;4.57;;;-3.00;99.90;;;;;;5027245;28;20028;-69
2024/01/16 07:10:13;;;;;;;12.02;4.75;;;-3.00;99.90;;;;;;5023359;28;20022;-67
2024/01/16 07:12:39;;;;;;;13.68;4.32;;;-3.00;99.90;;;;;;5025029;28;20589;-67
2024/01/16 07:15:06;;;;;;;13.13;4.47;;;-3.00;99.90;;;;;;5028587;28;20470;-65
2024/01/16 07:17:31;;;;;;;15.85;4.93;;;-3.00;99.90;;;;;;5026164;28;20079;-66
2024/01/16 07:19:58;;;;;;;14.73;4.97;;;-3.00;99.90;;;;;;5024129;28;20033;-64
2024/01/16 07:22:24;;;;;;;12.35;4.95;;;-3.00;99.90;;;;;;5025541;28;20036;-68
2024/01/16 07:24:49;;;;;;;14.52;4.80;;;-3.00;99.90;;;;;;5021266;28;20030;-67
2024/01/16 07:27:15;;;;;;;12.45;4.72;;;-3.00;99.90;;;;;;5025148;28;20575;-64
2024/01/16 07:29:41;;;;;;;14.77;4.93;;;-3.00;99.90;;;;;;5022611;28;20485;-64
2024/01/16 07:32:07;;;;;;;13.68;5.43;;;-2.90;99.90;;;;;;5025544;28;20029;-67
2024/01/16 07:34:33;;;;;;;12.85;4.35;;;-2.90;99.90;;;;;;5028048;28;20493;-63
2024/01/16 07:36:58;;;;;;;13.30;5.22;;;-2.90;99.90;;;;;;5026443;28;20049;-64
2024/01/16 07:39:24;;;;;;;16.25;5.45;;;-3.00;99.90;;;;;;5027568;28;20047;-70
2024/01/16 07:41:50;;;;;;;15.27;5.60;;;-3.00;99.90;;;;;;5023381;28;20064;-66
2024/01/16 07:44:15;;;;;;;20.55;6.07;;;-2.90;99.90;;;;;;5026447;28;20429;-64
2024/01/16 07:46:41;;;;;;;15.05;6.13;;;-2.90;99.90;;;;;;5022090;28;20387;-63
2024/01/16 07:49:06;;;;;;;17.02;5.78;;;-2.90;99.90;;;;;;5027562;28;20050;-63
2024/01/16 07:51:32;;;;;;;12.10;5.40;;;-2.80;99.90;;;;;;5028314;28;20108;-62
2024/01/16 07:54:09;;;;;;;13.20;4.95;;;-2.80;99.90;;;;;;5016448;28;20037;-63
2024/01/16 07:56:36;;;;;;;15.48;5.65;;;-2.80;99.90;;;;;;5024840;28;20046;-64
2024/01/16 07:59:02;;;;;;;16.80;5.70;;;-2.80;99.90;;;;;;5029749;28;20039;-63
2024/01/16 08:01:32;;;;;;;13.10;5.57;;;-2.70;99.90;;;;;;5029100;28;20025;-69
2024/01/16 08:03:57;;;;;;;17.50;5.45;;;-2.60;99.90;;;;;;5029792;28;20033;-63
2024/01/16 08:06:24;;;;;;;13.45;5.32;;;-2.60;99.90;;;;;;5029671;28;20045;-67
2024/01/16 08:08:50;;;;;;;15.05;5.00;;;-2.60;99.90;;;;;;5028860;28;20041;-62
2024/01/16 08:11:17;;;;;;;14.60;5.20;;;-2.60;99.90;;;;;;5029335;28;20029;-64
2024/01/16 08:13:43;;;;;;;13.65;5.53;;;-2.60;99.90;;;;;;5028955;28;20073;-62
2024/01/16 08:16:09;;;;;;;17.80;5.50;;;-2.50;99.90;;;;;;5029287;28;20402;-64
2024/01/16 08:18:35;;;;;;;14.48;5.38;;;-2.50;99.90;;;;;;5028666;28;20112;-64
2024/01/16 08:21:00;;;;;;;12.20;5.13;;;-2.50;99.90;;;;;;5029173;28;20047;-63
2024/01/16 08:23:26;;;;;;;16.95;5.40;;;-2.40;99.90;;;;;;5029026;28;20108;-68
2024/01/16 08:25:52;;;;;;;16.50;5.68;;;-2.30;99.90;;;;;;5029131;28;20482;-62
2024/01/16 08:28:18;;;;;;;18.52;6.07;;;-2.30;99.90;;;;;;5029375;28;20057;-64
2024/01/16 08:30:43;;;;;;;16.30;5.18;;;-2.20;99.90;;;;;;5027980;28;20030;-63
2024/01/16 08:33:10;;;;;;;13.05;5.40;;;-2.30;99.90;;;;;;5029071;28;20033;-64
2024/01/16 08:35:35;;;;;;;16.42;5.55;;;-2.20;99.90;;;;;;5027974;28;20038;-63
2024/01/16 08:38:01;;;;;;;16.77;6.07;;;-2.20;99.90;;;;;;5029215;28;20032;-64
2024/01/16 08:40:27;;;;;;;15.50;5.47;;;-2.10;99.90;;;;;;5028678;28;20311;-68
2024/01/16 08:42:54;;;;;;;19.73;5.60;;;-2.00;99.90;;;;;;5028474;28;20055;-63
2024/01/16 08:45:23;;;;;;;13.70;5.15;;;-2.00;99.90;;;;;;5029281;28;20069;-63
2024/01/16 08:47:52;;;;;;;14.90;5.82;;;-2.00;99.90;;;;;;5026470;28;20123;-63
2024/01/16 08:50:17;;;;;;;16.50;5.72;;;-1.90;99.90;;;;;;5028440;28;20040;-64
2024/01/16 08:52:43;;;;;;;17.67;6.40;;;-1.90;99.90;;;;;;5027668;28;20034;-62
2024/01/16 08:55:09;;;;;;;20.52;6.03;;;-1.90;99.90;;;;;;5027027;28;20496;-63
2024/01/16 08:57:36;;;;;;;18.00;6.53;;;-1.90;99.90;;;;;;5027873;28;20493;-62
2024/01/16 09:00:03;;;;;;;14.25;5.97;;;-2.00;99.90;;;;;;5028381;28;20123;-63
2024/01/16 09:02:30;;;;;;;16.45;5.90;;;-2.00;99.90;;;;;;5028040;28;20045;-67
2024/01/16 09:04:56;;;;;;;10.57;4.68;;;-1.80;99.90;;;;;;5028302;28;20029;-63
2024/01/16 09:07:22;;;;;;;14.77;5.90;;;-1.70;99.90;;;;;;5028246;28;20112;-62
2024/01/16 09:09:48;;;;;;;16.58;5.63;;;-1.70;99.90;;;;;;5027739;28;20474;-62
2024/01/16 09:12:14;;;;;;;18.90;5.28;;;-1.70;99.90;;;;;;5028361;28;20092;-64
2024/01/16 09:14:41;;;;;;;14.32;5.35;;;-1.60;99.90;;;;;;5027600;28;20064;-62
2024/01/16 09:17:06;;;;;;;15.20;5.35;;;-1.40;99.90;;;;;;5028464;28;20049;-62
2024/01/16 09:19:32;;;;;;;13.60;5.05;;;-1.40;99.90;;;;;;5026825;28;20034;-67
2024/01/16 09:21:58;;;;;;;15.23;6.07;;;-1.30;99.90;;;;;;5026512;28;20108;-64
2024/01/16 09:24:23;;;;;;;12.57;5.53;;;-1.40;99.90;;;;;;5028172;28;20525;-64
2024/01/16 09:26:49;;;;;;;14.50;5.88;;;-1.40;99.90;;;;;;5027835;28;20124;-63
2024/01/16 09:29:14;;;;;;;18.08;6.78;;;-1.40;99.90;;;;;;5027198;28;20033;-64
2024/01/16 09:31:41;;;;;;;18.83;6.97;;;-1.30;99.90;;;;;;5027449;28;20033;-65
2024/01/16 09:34:06;;;;;;;19.77;6.68;;;-1.20;99.90;;;;;;5028421;28;20107;-66
2024/01/16 09:36:35;;;;;;;14.25;5.53;;;-1.00;99.90;;;;;;5027826;28;20037;-71
2024/01/16 09:39:02;;;;;;;12.63;5.28;;;-1.00;99.90;;;;;;5028434;28;20025;-65
2024/01/16 09:41:27;;;;;;;21.48;7.60;;;-0.80;99.90;;;;;;5026595;28;20037;-64
2024/01/16 09:43:53;;;;;;;13.65;5.43;;;-1.00;99.90;;;;;;5029369;28;20611;-65
2024/01/16 09:46:24;;;;;;;15.35;6.20;;;-1.10;99.90;;;;;;5032266;28;20476;-64
2024/01/16 09:48:52;;;;;;;17.75;6.70;;;-1.10;99.90;;;;;;5030898;28;20609;-64
2024/01/16 09:51:18;;;;;;;18.05;6.75;;;-1.00;99.90;;;;;;5032279;28;20022;-64
2024/01/16 09:53:43;;;;;;;17.23;7.30;;;-1.00;99.90;;;;;;5030866;28;20091;-65
2024/01/16 09:56:16;;;;;;;14.55;5.70;;;-0.70;99.90;;;;;;5031581;28;20116;-65
2024/01/16 09:58:43;;;;;;;15.10;5.82;;;-0.30;99.90;;;;;;5031031;28;20064;-63
2024/01/16 10:01:11;;;;;;;17.98;6.10;;;-0.10;99.90;;;;;;5032048;28;20037;-64
2024/01/16 10:03:38;;;;;;;16.27;6.07;;;0.20;99.90;;;;;;5030655;28;20036;-64
2024/01/16 10:06:07;;;;;;;13.65;6.10;;;0.30;99.90;;;;;;5031435;28;20042;-64
2024/01/16 10:08:33;;;;;;;14.02;6.03;;;0.10;99.90;;;;;;5030853;28;20048;-69
2024/01/16 10:10:59;;;;;;;11.15;5.28;;;0.00;99.90;;;;;;5031650;28;20033;-64
2024/01/16 10:13:26;;;;;;;12.20;5.40;;;0.00;99.90;;;;;;5031260;28;20068;-64
2024/01/16 10:15:55;;;;;;;16.42;6.43;;;0.30;99.90;;;;;;5029330;28;20179;-64
2024/01/16 10:18:24;;;;;;;13.20;6.13;;;0.50;99.90;;;;;;5031823;28;20116;-65
2024/01/16 10:20:50;;;;;;;14.73;6.18;;;0.80;99.90;;;;;;5030984;28;20044;-65
2024/01/16 10:23:25;;;;;;;13.73;5.80;;;0.80;99.90;;;;;;5031801;28;20056;-65
2024/01/16 10:26:06;;;;;;;16.27;6.60;;;0.70;99.90;;;;;;5030641;28;20489;-63
2024/01/16 10:28:35;;;;;;;17.42;6.40;;;0.70;99.90;;;;;;5030952;28;20061;-69
2024/01/16 10:31:06;;;;;;;16.60;6.07;;;0.80;99.90;;;;;;5030175;28;20034;-64
2024/01/16 10:33:32;;;;;;;21.52;6.90;;;0.80;99.90;;;;;;5031617;28;20033;-63
2024/01/16 10:36:16;;;;;;;16.50;6.03;;;0.70;99.90;;;;;;5030409;28;20061;-65
2024/01/16 10:38:43;;;;;;;16.75;5.72;;;0.50;99.90;;;;;;5030571;28;20371;-64
2024/01/16 10:41:17;;;;;;;13.57;5.43;;;0.20;99.90;;;;;;5031286;28;20048;-64
2024/01/16 10:43:47;;;;;;;14.02;6.07;;;0.10;99.90;;;;;;5030261;28;20076;-63
2024/01/16 10:46:18;;;;;;;15.57;5.97;;;0.00;99.90;;;;;;5030863;28;20037;-63
2024/01/16 10:48:57;;;;;;;16.63;5.82;;;0.00;99.90;;;;;;5029663;28;20057;-64
2024/01/16 10:51:25;;;;;;;13.82;5.72;;;0.00;99.90;;;;;;5030990;28;20034;-63
2024/01/16 10:53:58;;;;;;;14.63;5.57;;;0.30;99.90;;;;;;5030648;28;20032;-63
2024/01/16 10:56:23;;;;;;;15.25;5.75;;;0.20;99.90;;;;;;5030516;28;20037;-63
2024/01/16 10:59:01;;;;;;;14.68;6.03;;;0.20;99.90;;;;;;5030260;28;20471;-65
2024/01/16 11:01:29;;;;;;;17.50;6.30;;;0.20;99.90;;;;;;5030876;28;20051;-63
2024/01/16 11:03:57;;;;;;;13.35;5.55;;;0.30;99.90;;;;;;5029860;28;20025;-65
2024/01/16 11:06:23;;;;;;;12.80;5.00;;;0.60;99.90;;;;;;5030615;28;20026;-63
2024/01/16 11:08:49;;;;;;;13.07;5.07;;;0.80;99.90;;;;;;5030116;28;20116;-64
2024/01/16 11:11:15;;;;;;;14.18;4.45;;;1.00;99.90;;;;;;5030947;28;20108;-65
2024/01/16 11:13:44;;;;;;;14.82;4.70;;;0.80;99.90;;;;;;5029762;28;20200;-63
2024/01/16 11:16:11;;;;;;;12.60;4.40;;;0.80;99.90;;;;;;5029569;28;20516;-65
2024/01/16 11:18:37;;;;;;;12.45;4.82;;;0.50;99.90;;;;;;5030095;28;20033;-69
2024/01/16 11:21:05;;;;;;;16.98;5.20;;;0.50;99.90;;;;;;5030140;28;20079;-63
2024/01/16 11:23:31;;;;;;;14.23;5.18;;;0.50;99.90;;;;;;5030867;28;20029;-64
2024/01/16 11:25:57;;;;;;;21.85;5.15;;;0.80;99.90;;;;;;5029639;28;20021;-64
2024/01/16 11:28:31;;;;;;;15.25;5.63;;;0.90;99.90;;;;;;5028536;28;20512;-64
2024/01/16 11:30:56;;;;;;;13.60;5.53;;;0.80;99.90;;;;;;5029786;28;20048;-63
2024/01/16 11:33:31;;;;;;;10.52;4.90;;;1.00;99.90;;;;;;5030136;28;20033;-64
2024/01/16 11:35:57;;;;;;;15.57;5.30;;;1.20;99.90;;;;;;5026063;28;20082;-64
2024/01/16 11:38:26;;;;;;;13.43;4.95;;;1.20;99.90;;;;;;5030107;28;20478;-64
2024/01/16 11:40:53;;;;;;;10.48;4.38;;;1.40;99.90;;;;;;5028503;28;20463;-64
2024/01/16 11:43:34;;;;;;;14.25;5.03;;;1.20;99.90;;;;;;5029764;28;20067;-65
2024/01/16 11:46:01;;;;;;;11.07;4.65;;;1.30;99.90;;;;;;5029031;28;20560;-66
2024/01/16 11:48:27;;;;;;;10.90;4.68;;;1.30;99.90;;;;;;5029951;28;20068;-64
2024/01/16 11:50:53;;;;;;;12.00;4.60;;;1.40;99.90;;;;;;5029623;28;20030;-64
2024/01/16 11:53:41;;;;;;;11.55;4.65;;;1.40;99.90;;;;;;5029857;28;20025;-67
2024/01/16 11:56:19;;;;;;;11.82;4.38;;;1.70;99.90;;;;;;5029703;28;20091;-66
2024/01/16 11:58:54;;;;;;;14.85;4.63;;;1.70;99.90;;;;;;5029261;28;20044;-65
2024/01/16 12:01:20;;;;;;;13.48;4.45;;;1.60;99.90;;;;;;5029949;28;20025;-67
2024/01/16 12:03:46;;;;;;;11.07;4.30;;;1.60;99.90;;;;;;5028685;28;20033;-66
2024/01/16 12:06:16;;;;;;;19.73;4.63;;;2.20;99.90;;;;;;5028966;28;20025;-65
2024/01/16 12:08:42;;;;;;;10.27;4.40;;;2.40;99.90;;;;;;5027740;28;20029;-68
2024/01/16 12:11:07;;;;;;;9.60;4.50;;;2.60;99.90;;;;;;5029373;28;20474;-66
2024/01/16 12:13:33;;;;;;;10.40;4.43;;;2.80;99.90;;;;;;5029574;28;20029;-64
2024/01/16 12:16:05;;;;;;;10.68;4.57;;;2.60;99.90;;;;;;5028222;28;20046;-67
2024/01/16 12:18:30;;;;;;;8.75;4.22;;;2.70;99.90;;;;;;5029303;28;20083;-67
2024/01/16 12:20:56;;;;;;;11.70;4.10;;;2.90;99.90;;;;;;5028844;28;20029;-66
2024/01/16 12:23:23;;;;;;;14.00;4.47;;;2.70;99.90;;;;;;5029462;28;20029;-65
2024/01/16 12:25:52;;;;;;;10.77;3.75;;;2.70;99.90;;;;;;5027946;28;20106;-66
2024/01/16 12:28:21;;;;;;;8.88;3.85;;;2.60;99.90;;;;;;5029135;28;20036;-66
2024/01/16 12:30:53;;;;;;;13.52;4.57;;;2.80;99.90;;;;;;5027159;28;20029;-66
2024/01/16 12:33:22;;;;;;;9.35;4.07;;;2.90;99.90;;;;;;5029254;28;20108;-65
2024/01/16 12:35:48;;;;;;;9.88;3.80;;;2.50;99.90;;;;;;5028206;28;20061;-66